sensor_id;sensor_type;location;lat;lon;timestamp;pressure;altitude;pressure_sealevel;temperature
58102;BMP280;52034;51.926;6.320;2023-07-13T00:00:16;101326.81;;;17.95
58102;BMP280;52034;51.926;6.320;2023-07-13T00:01:17;101321.13;;;17.93
58102;BMP280;52034;51.926;6.320;2023-07-13T00:02:17;101332.56;;;17.99
58102;BMP280;52034;51.926;6.320;2023-07-13T00:03:17;101327.56;;;17.98
58102;BMP280;52034;51.926;6.320;2023-07-13T00:04:20;101322.59;;;18.00
58102;BMP280;52034;51.926;6.320;2023-07-13T00:05:22;101326.75;;;17.91
58102;BMP280;52034;51.926;6.320;2023-07-13T00:06:23;101324.63;;;17.92
58102;BMP280;52034;51.926;6.320;2023-07-13T00:07:24;101326.06;;;17.93
58102;BMP280;52034;51.926;6.320;2023-07-13T00:08:24;101326.06;;;17.93
58102;BMP280;52034;51.926;6.320;2023-07-13T00:09:24;101319.53;;;17.83
58102;BMP280;52034;51.926;6.320;2023-07-13T00:10:25;101330.97;;;17.88
58102;BMP280;52034;51.926;6.320;2023-07-13T00:11:26;101330.38;;;17.94
58102;BMP280;52034;51.926;6.320;2023-07-13T00:12:29;101325.41;;;17.96
58102;BMP280;52034;51.926;6.320;2023-07-13T00:13:30;101338.19;;;17.97
58102;BMP280;52034;51.926;6.320;2023-07-13T00:14:31;101329.72;;;18.01
58102;BMP280;52034;51.926;6.320;2023-07-13T00:15:31;101328.25;;;17.96
58102;BMP280;52034;51.926;6.320;2023-07-13T00:16:34;101332.56;;;18.01
58102;BMP280;52034;51.926;6.320;2023-07-13T00:17:35;101328.28;;;17.98
58102;BMP280;52034;51.926;6.320;2023-07-13T00:18:36;101325.50;;;18.02
58102;BMP280;52034;51.926;6.320;2023-07-13T00:19:37;101331.09;;;17.98
58102;BMP280;52034;51.926;6.320;2023-07-13T00:20:38;101335.41;;;17.99
58102;BMP280;52034;51.926;6.320;2023-07-13T00:21:39;101335.41;;;17.99
58102;BMP280;52034;51.926;6.320;2023-07-13T00:22:40;101338.25;;;18.01
58102;BMP280;52034;51.926;6.320;2023-07-13T00:23:42;101343.22;;;17.99
58102;BMP280;52034;51.926;6.320;2023-07-13T00:24:43;101339.66;;;18.00
58102;BMP280;52034;51.926;6.320;2023-07-13T00:25:43;101338.88;;;17.94
58102;BMP280;52034;51.926;6.320;2023-07-13T00:26:44;101331.75;;;17.95
58102;BMP280;52034;51.926;6.320;2023-07-13T00:27:47;101331.09;;;17.96
58102;BMP280;52034;51.926;6.320;2023-07-13T00:28:49;101328.25;;;17.96
58102;BMP280;52034;51.926;6.320;2023-07-13T00:29:49;101326.13;;;17.97
58102;BMP280;52034;51.926;6.320;2023-07-13T00:30:50;101336.75;;;17.94
58102;BMP280;52034;51.926;6.320;2023-07-13T00:31:50;101337.44;;;17.95
58102;BMP280;52034;51.926;6.320;2023-07-13T00:32:51;101332.50;;;17.95
58102;BMP280;52034;51.926;6.320;2023-07-13T00:33:51;101338.81;;;17.90
58102;BMP280;52034;51.926;6.320;2023-07-13T00:34:52;101342.97;;;17.83
58102;BMP280;52034;51.926;6.320;2023-07-13T00:35:53;101336.47;;;17.75
58102;BMP280;52034;51.926;6.320;2023-07-13T00:36:54;101342.13;;;17.75
58102;BMP280;52034;51.926;6.320;2023-07-13T00:37:54;101335.56;;;17.64
58102;BMP280;52034;51.926;6.320;2023-07-13T00:38:58;101337.72;;;17.64
58102;BMP280;52034;51.926;6.320;2023-07-13T00:39:58;101339.16;;;17.65
58102;BMP280;52034;51.926;6.320;2023-07-13T00:40:59;101336.25;;;17.63
58102;BMP280;52034;51.926;6.320;2023-07-13T00:42:01;101339.81;;;17.63
58102;BMP280;52034;51.926;6.320;2023-07-13T00:43:02;101337.69;;;17.62
58102;BMP280;52034;51.926;6.320;2023-07-13T00:44:03;101342.66;;;17.63
58102;BMP280;52034;51.926;6.320;2023-07-13T00:46:32;101342.66;;;17.63
58102;BMP280;52034;51.926;6.320;2023-07-13T00:47:33;101330.63;;;17.65
58102;BMP280;52034;51.926;6.320;2023-07-13T00:48:36;101332.13;;;17.72
58102;BMP280;52034;51.926;6.320;2023-07-13T00:49:37;101334.97;;;17.72
58102;BMP280;52034;51.926;6.320;2023-07-13T00:50:38;101336.44;;;17.73
58102;BMP280;52034;51.926;6.320;2023-07-13T00:51:50;101327.88;;;17.71
58102;BMP280;52034;51.926;6.320;2023-07-13T00:52:54;101339.25;;;17.71
58102;BMP280;52034;51.926;6.320;2023-07-13T00:53:58;101337.81;;;17.70
58102;BMP280;52034;51.926;6.320;2023-07-13T00:54:59;101333.50;;;17.69
58102;BMP280;52034;51.926;6.320;2023-07-13T00:56:00;101335.66;;;17.68
58102;BMP280;52034;51.926;6.320;2023-07-13T00:57:04;101333.47;;;17.65
58102;BMP280;52034;51.926;6.320;2023-07-13T00:58:05;101339.16;;;17.65
58102;BMP280;52034;51.926;6.320;2023-07-13T00:59:08;101332.72;;;17.64
58102;BMP280;52034;51.926;6.320;2023-07-13T01:00:10;101330.63;;;17.65
58102;BMP280;52034;51.926;6.320;2023-07-13T01:01:12;101338.47;;;17.66
58102;BMP280;52034;51.926;6.320;2023-07-13T01:02:13;101336.34;;;17.67
58102;BMP280;52034;51.926;6.320;2023-07-13T01:03:15;101331.91;;;17.56
58102;BMP280;52034;51.926;6.320;2023-07-13T01:04:16;101344.16;;;17.68
58102;BMP280;52034;51.926;6.320;2023-07-13T01:05:20;101343.38;;;17.62
58102;BMP280;52034;51.926;6.320;2023-07-13T01:06:21;101339.78;;;17.61
58102;BMP280;52034;51.926;6.320;2023-07-13T01:07:21;101339.66;;;17.53
58102;BMP280;52034;51.926;6.320;2023-07-13T01:08:22;101347.56;;;17.59
58102;BMP280;52034;51.926;6.320;2023-07-13T01:09:23;101344.72;;;17.57
58102;BMP280;52034;51.926;6.320;2023-07-13T01:10:25;101353.25;;;17.57
58102;BMP280;52034;51.926;6.320;2023-07-13T01:11:26;101347.56;;;17.59
58102;BMP280;52034;51.926;6.320;2023-07-13T01:12:27;101339.03;;;17.57
58102;BMP280;52034;51.926;6.320;2023-07-13T01:13:27;101348.25;;;17.57
58102;BMP280;52034;51.926;6.320;2023-07-13T01:14:27;101346.94;;;17.64
58102;BMP280;52034;51.926;6.320;2023-07-13T01:16:40;101332.66;;;17.58
58102;BMP280;52034;51.926;6.320;2023-07-13T01:17:41;101332.56;;;17.54
58102;BMP280;52034;51.926;6.320;2023-07-13T01:18:43;101337.56;;;17.56
58102;BMP280;52034;51.926;6.320;2023-07-13T01:19:45;101331.88;;;17.54
58102;BMP280;52034;51.926;6.320;2023-07-13T01:20:50;101333.97;;;17.53
58102;BMP280;52034;51.926;6.320;2023-07-13T01:21:52;101331.16;;;17.53
58102;BMP280;52034;51.926;6.320;2023-07-13T01:22:52;101340.41;;;17.54
58102;BMP280;52034;51.926;6.320;2023-07-13T01:23:53;101342.44;;;17.49
58102;BMP280;52034;51.926;6.320;2023-07-13T01:24:54;101342.44;;;17.49
58102;BMP280;52034;51.926;6.320;2023-07-13T01:25:56;101340.31;;;17.50
58102;BMP280;52034;51.926;6.320;2023-07-13T01:26:57;101350.16;;;17.43
58102;BMP280;52034;51.926;6.320;2023-07-13T01:27:57;101344.44;;;17.41
58102;BMP280;52034;51.926;6.320;2023-07-13T01:28:58;101349.28;;;17.32
58102;BMP280;52034;51.926;6.320;2023-07-13T01:29:58;101342.25;;;17.37
58102;BMP280;52034;51.926;6.320;2023-07-13T01:31:04;101339.38;;;17.35
58102;BMP280;52034;51.926;6.320;2023-07-13T01:32:05;101347.91;;;17.35
58102;BMP280;52034;51.926;6.320;2023-07-13T01:33:08;101340.06;;;17.34
58102;BMP280;52034;51.926;6.320;2023-07-13T01:34:10;101344.28;;;17.31
58102;BMP280;52034;51.926;6.320;2023-07-13T01:35:11;101347.03;;;17.27
58102;BMP280;52034;51.926;6.320;2023-07-13T01:36:12;101343.50;;;17.26
58102;BMP280;52034;51.926;6.320;2023-07-13T01:37:14;101349.19;;;17.28
58102;BMP280;52034;51.926;6.320;2023-07-13T01:38:15;101351.28;;;17.26
58102;BMP280;52034;51.926;6.320;2023-07-13T01:39:17;101336.34;;;17.25
58102;BMP280;52034;51.926;6.320;2023-07-13T01:40:18;101339.25;;;17.27
58102;BMP280;52034;51.926;6.320;2023-07-13T01:41:18;101340.59;;;17.22
58102;BMP280;52034;51.926;6.320;2023-07-13T01:42:20;101337.03;;;17.24
58102;BMP280;52034;51.926;6.320;2023-07-13T01:43:22;101342.66;;;17.20
58102;BMP280;52034;51.926;6.320;2023-07-13T01:44:22;101334.84;;;17.18
58102;BMP280;52034;51.926;6.320;2023-07-13T01:45:23;101332.75;;;17.21
58102;BMP280;52034;51.926;6.320;2023-07-13T01:46:23;101329.88;;;17.19
58102;BMP280;52034;51.926;6.320;2023-07-13T01:47:24;101336.34;;;17.23
58102;BMP280;52034;51.926;6.320;2023-07-13T01:48:26;101334.81;;;17.16
58102;BMP280;52034;51.926;6.320;2023-07-13T01:49:26;101324.25;;;17.21
58102;BMP280;52034;51.926;6.320;2023-07-13T01:50:27;101338.59;;;17.31
58102;BMP280;52034;51.926;6.320;2023-07-13T01:51:27;101333.47;;;17.21
58102;BMP280;52034;51.926;6.320;2023-07-13T01:52:28;101332.16;;;17.28
58102;BMP280;52034;51.926;6.320;2023-07-13T01:53:28;101329.94;;;17.23
58102;BMP280;52034;51.926;6.320;2023-07-13T01:54:29;101329.25;;;17.24
58102;BMP280;52034;51.926;6.320;2023-07-13T01:55:31;101334.31;;;17.30
58102;BMP280;52034;51.926;6.320;2023-07-13T01:56:31;101332.81;;;17.25
58102;BMP280;52034;51.926;6.320;2023-07-13T01:57:32;101335.16;;;17.36
58102;BMP280;52034;51.926;6.320;2023-07-13T01:58:32;101330.75;;;17.29
58102;BMP280;52034;51.926;6.320;2023-07-13T01:59:32;101332.31;;;17.36
58102;BMP280;52034;51.926;6.320;2023-07-13T02:00:33;101335.78;;;17.33
58102;BMP280;52034;51.926;6.320;2023-07-13T02:01:36;101336.47;;;17.31
58102;BMP280;52034;51.926;6.320;2023-07-13T02:02:36;101341.31;;;17.23
58102;BMP280;52034;51.926;6.320;2023-07-13T02:03:37;101332.66;;;17.17
58102;BMP280;52034;51.926;6.320;2023-07-13T02:04:37;101334.13;;;17.18
58102;BMP280;52034;51.926;6.320;2023-07-13T02:05:37;101334.75;;;17.14
58102;BMP280;52034;51.926;6.320;2023-07-13T02:06:38;101342.56;;;17.14
58102;BMP280;52034;51.926;6.320;2023-07-13T02:07:39;101338.31;;;17.15
58102;BMP280;52034;51.926;6.320;2023-07-13T02:08:40;101331.19;;;17.12
58102;BMP280;52034;51.926;6.320;2023-07-13T02:09:41;101336.88;;;17.14
58102;BMP280;52034;51.926;6.320;2023-07-13T02:10:42;101334.03;;;17.14
58102;BMP280;52034;51.926;6.320;2023-07-13T02:11:42;101331.03;;;17.04
58102;BMP280;52034;51.926;6.320;2023-07-13T02:12:44;101331.66;;;16.98
58102;BMP280;52034;51.926;6.320;2023-07-13T02:13:44;101330.94;;;17.00
58102;BMP280;52034;51.926;6.320;2023-07-13T02:14:44;101333.09;;;17.01
58102;BMP280;52034;51.926;6.320;2023-07-13T02:15:45;101327.38;;;16.97
58102;BMP280;52034;51.926;6.320;2023-07-13T02:16:45;101318.91;;;16.99
58102;BMP280;52034;51.926;6.320;2023-07-13T02:17:46;101328.09;;;16.98
58102;BMP280;52034;51.926;6.320;2023-07-13T02:18:46;101334.53;;;17.02
58102;BMP280;52034;51.926;6.320;2023-07-13T02:19:47;101340.97;;;17.05
58102;BMP280;52034;51.926;6.320;2023-07-13T02:20:47;101330.88;;;16.96
58102;BMP280;52034;51.926;6.320;2023-07-13T02:21:48;101342.22;;;16.96
58102;BMP280;52034;51.926;6.320;2023-07-13T02:22:48;101333.03;;;16.97
58102;BMP280;52034;51.926;6.320;2023-07-13T02:23:49;101333.88;;;17.04
58102;BMP280;52034;51.926;6.320;2023-07-13T02:24:50;101335.22;;;16.99
58102;BMP280;52034;51.926;6.320;2023-07-13T02:26:00;101333.78;;;16.98
58102;BMP280;52034;51.926;6.320;2023-07-13T02:27:03;101342.19;;;16.94
58102;BMP280;52034;51.926;6.320;2023-07-13T02:28:03;101345.00;;;16.92
58102;BMP280;52034;51.926;6.320;2023-07-13T02:29:03;101340.06;;;16.94
58102;BMP280;52034;51.926;6.320;2023-07-13T02:30:04;101338.03;;;16.99
58102;BMP280;52034;51.926;6.320;2023-07-13T02:31:10;101346.47;;;16.95
58102;BMP280;52034;51.926;6.320;2023-07-13T02:32:11;101345.81;;;16.96
58102;BMP280;52034;51.926;6.320;2023-07-13T02:33:11;101350.69;;;16.92
58102;BMP280;52034;51.926;6.320;2023-07-13T02:34:11;101339.91;;;16.86
58102;BMP280;52034;51.926;6.320;2023-07-13T02:35:12;101340.56;;;16.83
58102;BMP280;52034;51.926;6.320;2023-07-13T02:36:13;101342.81;;;16.88
58102;BMP280;52034;51.926;6.320;2023-07-13T02:37:17;101336.34;;;16.84
58102;BMP280;52034;51.926;6.320;2023-07-13T02:38:17;101340.66;;;16.87
58102;BMP280;52034;51.926;6.320;2023-07-13T02:39:18;101342.69;;;16.82
58102;BMP280;52034;51.926;6.320;2023-07-13T02:40:18;101339.16;;;16.82
58102;BMP280;52034;51.926;6.320;2023-07-13T02:41:19;101347.72;;;16.86
58102;BMP280;52034;51.926;6.320;2023-07-13T02:42:20;101340.00;;;16.90
58102;BMP280;52034;51.926;6.320;2023-07-13T02:43:20;101339.88;;;16.84
58102;BMP280;52034;51.926;6.320;2023-07-13T02:44:21;101336.41;;;16.88
58102;BMP280;52034;51.926;6.320;2023-07-13T02:45:22;101334.13;;;16.80
58102;BMP280;52034;51.926;6.320;2023-07-13T02:46:22;101329.88;;;16.79
58102;BMP280;52034;51.926;6.320;2023-07-13T02:47:24;101324.22;;;16.81
58102;BMP280;52034;51.926;6.320;2023-07-13T02:48:24;101337.69;;;16.81
58102;BMP280;52034;51.926;6.320;2023-07-13T02:49:25;101334.13;;;16.80
58102;BMP280;52034;51.926;6.320;2023-07-13T02:50:25;101335.56;;;16.81
58102;BMP280;52034;51.926;6.320;2023-07-13T02:51:26;101343.34;;;16.81
58102;BMP280;52034;51.926;6.320;2023-07-13T02:52:26;101344.06;;;16.79
58102;BMP280;52034;51.926;6.320;2023-07-13T02:53:27;101351.88;;;16.81
58102;BMP280;52034;51.926;6.320;2023-07-13T02:54:27;101352.03;;;16.89
58102;BMP280;52034;51.926;6.320;2023-07-13T02:55:28;101357.06;;;16.92
58102;BMP280;52034;51.926;6.320;2023-07-13T02:56:29;101348.53;;;16.92
58102;BMP280;52034;51.926;6.320;2023-07-13T02:57:30;101352.13;;;16.95
58102;BMP280;52034;51.926;6.320;2023-07-13T02:58:33;101358.59;;;16.99
58102;BMP280;52034;51.926;6.320;2023-07-13T02:59:36;101357.25;;;17.02
58102;BMP280;52034;51.926;6.320;2023-07-13T03:00:38;101355.06;;;17.01
58102;BMP280;52034;51.926;6.320;2023-07-13T03:01:41;101347.03;;;16.87
58102;BMP280;52034;51.926;6.320;2023-07-13T03:02:41;101347.72;;;16.86
58102;BMP280;52034;51.926;6.320;2023-07-13T03:03:42;101356.88;;;16.82
58102;BMP280;52034;51.926;6.320;2023-07-13T03:04:43;101351.06;;;16.74
58102;BMP280;52034;51.926;6.320;2023-07-13T03:05:44;101362.47;;;16.78
58102;BMP280;52034;51.926;6.320;2023-07-13T03:06:49;101345.94;;;16.67
58102;BMP280;52034;51.926;6.320;2023-07-13T03:07:50;101350.28;;;16.72
58102;BMP280;52034;51.926;6.320;2023-07-13T03:08:51;101352.47;;;16.73
58102;BMP280;52034;51.926;6.320;2023-07-13T03:09:58;101353.00;;;16.66
58102;BMP280;52034;51.926;6.320;2023-07-13T03:11:06;101358.06;;;16.71
58102;BMP280;52034;51.926;6.320;2023-07-13T03:12:09;101360.19;;;16.71
58102;BMP280;52034;51.926;6.320;2023-07-13T03:13:10;101365.84;;;16.71
58102;BMP280;52034;51.926;6.320;2023-07-13T03:14:11;101356.53;;;16.66
58102;BMP280;52034;51.926;6.320;2023-07-13T03:15:13;101361.31;;;16.56
58102;BMP280;52034;51.926;6.320;2023-07-13T03:16:16;101358.50;;;16.58
58102;BMP280;52034;51.926;6.320;2023-07-13T03:17:19;101364.84;;;16.56
58102;BMP280;52034;51.926;6.320;2023-07-13T03:18:19;101365.56;;;16.57
58102;BMP280;52034;51.926;6.320;2023-07-13T03:19:21;101368.47;;;16.59
58102;BMP280;52034;51.926;6.320;2023-07-13T03:20:24;101360.03;;;16.65
58102;BMP280;52034;51.926;6.320;2023-07-13T03:21:24;101366.41;;;16.63
58102;BMP280;52034;51.926;6.320;2023-07-13T03:22:25;101365.06;;;16.66
58102;BMP280;52034;51.926;6.320;2023-07-13T03:23:26;101360.72;;;16.61
58102;BMP280;52034;51.926;6.320;2023-07-13T03:24:27;101368.53;;;16.63
58102;BMP280;52034;51.926;6.320;2023-07-13T03:25:28;101370.66;;;16.62
58102;BMP280;52034;51.926;6.320;2023-07-13T03:26:29;101377.75;;;16.63
58102;BMP280;52034;51.926;6.320;2023-07-13T03:27:30;101373.47;;;16.62
58102;BMP280;52034;51.926;6.320;2023-07-13T03:28:31;101372.03;;;16.61
58102;BMP280;52034;51.926;6.320;2023-07-13T03:29:31;101372.72;;;16.60
58102;BMP280;52034;51.926;6.320;2023-07-13T03:30:32;101381.22;;;16.60
58102;BMP280;52034;51.926;6.320;2023-07-13T03:31:34;101382.03;;;16.64
58102;BMP280;52034;51.926;6.320;2023-07-13T03:32:35;101375.59;;;16.62
58102;BMP280;52034;51.926;6.320;2023-07-13T03:33:35;101374.28;;;16.67
58102;BMP280;52034;51.926;6.320;2023-07-13T03:34:36;101375.03;;;16.67
58102;BMP280;52034;51.926;6.320;2023-07-13T03:35:40;101375.84;;;16.74
58102;BMP280;52034;51.926;6.320;2023-07-13T03:36:41;101379.50;;;16.80
58102;BMP280;52034;51.926;6.320;2023-07-13T03:37:44;101379.56;;;16.82
58102;BMP280;52034;51.926;6.320;2023-07-13T03:38:56;101380.34;;;16.87
58102;BMP280;52034;51.926;6.320;2023-07-13T03:39:59;101380.22;;;16.79
58102;BMP280;52034;51.926;6.320;2023-07-13T03:41:00;101374.75;;;16.91
58102;BMP280;52034;51.926;6.320;2023-07-13T03:42:01;101386.69;;;16.85
58102;BMP280;52034;51.926;6.320;2023-07-13T03:43:02;101383.78;;;16.81
58102;BMP280;52034;51.926;6.320;2023-07-13T03:44:04;101388.78;;;16.83
58102;BMP280;52034;51.926;6.320;2023-07-13T03:45:05;101390.28;;;16.88
58102;BMP280;52034;51.926;6.320;2023-07-13T03:46:07;101395.13;;;16.81
58102;BMP280;52034;51.926;6.320;2023-07-13T03:47:07;101386.69;;;16.83
58102;BMP280;52034;51.926;6.320;2023-07-13T03:48:09;101395.94;;;16.86
58102;BMP280;52034;51.926;6.320;2023-07-13T03:49:10;101398.81;;;16.88
58102;BMP280;52034;51.926;6.320;2023-07-13T03:50:11;101397.38;;;16.87
58102;BMP280;52034;51.926;6.320;2023-07-13T03:51:14;101400.81;;;16.81
58102;BMP280;52034;51.926;6.320;2023-07-13T03:52:15;101402.16;;;16.78
58102;BMP280;52034;51.926;6.320;2023-07-13T03:53:16;101399.44;;;16.84
58102;BMP280;52034;51.926;6.320;2023-07-13T03:54:16;101395.78;;;16.78
58102;BMP280;52034;51.926;6.320;2023-07-13T03:55:18;101394.41;;;16.79
58102;BMP280;52034;51.926;6.320;2023-07-13T03:56:20;101390.81;;;16.78
58102;BMP280;52034;51.926;6.320;2023-07-13T03:57:20;101392.25;;;16.79
58102;BMP280;52034;51.926;6.320;2023-07-13T03:58:38;101392.88;;;16.74
58102;BMP280;52034;51.926;6.320;2023-07-13T03:59:45;101392.78;;;16.70
58102;BMP280;52034;51.926;6.320;2023-07-13T04:00:46;101399.88;;;16.71
58102;BMP280;52034;51.926;6.320;2023-07-13T04:01:46;101396.34;;;16.70
58102;BMP280;52034;51.926;6.320;2023-07-13T04:02:47;101385.69;;;16.69
58102;BMP280;52034;51.926;6.320;2023-07-13T04:03:49;101393.53;;;16.72
58102;BMP280;52034;51.926;6.320;2023-07-13T04:04:50;101394.94;;;16.71
58102;BMP280;52034;51.926;6.320;2023-07-13T04:05:50;101394.19;;;16.69
58102;BMP280;52034;51.926;6.320;2023-07-13T04:06:51;101392.72;;;16.68
58102;BMP280;52034;51.926;6.320;2023-07-13T04:07:53;101390.63;;;16.68
58102;BMP280;52034;51.926;6.320;2023-07-13T04:08:56;101399.16;;;16.70
58102;BMP280;52034;51.926;6.320;2023-07-13T04:09:57;101395.72;;;16.76
58102;BMP280;52034;51.926;6.320;2023-07-13T04:10:58;101400.06;;;16.79
58102;BMP280;52034;51.926;6.320;2023-07-13T04:11:58;101396.44;;;16.76
58102;BMP280;52034;51.926;6.320;2023-07-13T04:13:01;101398.44;;;16.70
58102;BMP280;52034;51.926;6.320;2023-07-13T04:14:02;101397.09;;;16.75
58102;BMP280;52034;51.926;6.320;2023-07-13T04:15:03;101400.00;;;16.77
58102;BMP280;52034;51.926;6.320;2023-07-13T04:16:03;101401.53;;;16.82
58102;BMP280;52034;51.926;6.320;2023-07-13T04:17:04;101407.34;;;16.90
58102;BMP280;52034;51.926;6.320;2023-07-13T04:18:05;101397.50;;;16.93
58102;BMP280;52034;51.926;6.320;2023-07-13T04:19:05;101408.88;;;16.95
58102;BMP280;52034;51.926;6.320;2023-07-13T04:20:06;101401.16;;;16.99
58102;BMP280;52034;51.926;6.320;2023-07-13T04:21:07;101401.13;;;16.97
58102;BMP280;52034;51.926;6.320;2023-07-13T04:22:09;101406.94;;;17.03
58102;BMP280;52034;51.926;6.320;2023-07-13T04:23:09;101401.16;;;16.99
58102;BMP280;52034;51.926;6.320;2023-07-13T04:24:10;101409.09;;;17.07
58102;BMP280;52034;51.926;6.320;2023-07-13T04:25:10;101409.09;;;17.07
58102;BMP280;52034;51.926;6.320;2023-07-13T04:26:11;101411.28;;;17.08
58102;BMP280;52034;51.926;6.320;2023-07-13T04:27:11;101404.81;;;17.06
58102;BMP280;52034;51.926;6.320;2023-07-13T04:28:12;101406.44;;;17.17
58102;BMP280;52034;51.926;6.320;2023-07-13T04:29:12;101407.19;;;17.17
58102;BMP280;52034;51.926;6.320;2023-07-13T04:30:13;101403.66;;;17.19
58102;BMP280;52034;51.926;6.320;2023-07-13T04:31:14;101407.91;;;17.18
58102;BMP280;52034;51.926;6.320;2023-07-13T04:32:14;101409.97;;;17.15
58102;BMP280;52034;51.926;6.320;2023-07-13T04:33:15;101410.81;;;17.22
58102;BMP280;52034;51.926;6.320;2023-07-13T04:34:17;101411.53;;;17.22
58102;BMP280;52034;51.926;6.320;2023-07-13T04:35:19;101415.81;;;17.25
58102;BMP280;52034;51.926;6.320;2023-07-13T04:36:20;101413.78;;;17.30
58102;BMP280;52034;51.926;6.320;2023-07-13T04:37:21;101415.81;;;17.23
58102;BMP280;52034;51.926;6.320;2023-07-13T04:38:26;101411.53;;;17.22
58102;BMP280;52034;51.926;6.320;2023-07-13T04:39:27;101415.25;;;17.31
58102;BMP280;52034;51.926;6.320;2023-07-13T04:40:28;101423.84;;;17.37
58102;BMP280;52034;51.926;6.320;2023-07-13T04:41:29;101422.38;;;17.34
58102;BMP280;52034;51.926;6.320;2023-07-13T04:42:29;101423.94;;;17.41
58102;BMP280;52034;51.926;6.320;2023-07-13T04:43:31;101422.56;;;17.44
58102;BMP280;52034;51.926;6.320;2023-07-13T04:44:32;101421.81;;;17.43
58102;BMP280;52034;51.926;6.320;2023-07-13T04:45:33;101429.63;;;17.43
58102;BMP280;52034;51.926;6.320;2023-07-13T04:46:35;101429.63;;;17.43
58102;BMP280;52034;51.926;6.320;2023-07-13T04:47:35;101436.72;;;17.42
58102;BMP280;52034;51.926;6.320;2023-07-13T04:48:36;101430.47;;;17.49
58102;BMP280;52034;51.926;6.320;2023-07-13T04:49:37;101442.59;;;17.54
58102;BMP280;52034;51.926;6.320;2023-07-13T04:50:37;101439.88;;;17.60
58102;BMP280;52034;51.926;6.320;2023-07-13T04:51:38;101439.16;;;17.59
58102;BMP280;52034;51.926;6.320;2023-07-13T04:52:38;101438.41;;;17.59
58102;BMP280;52034;51.926;6.320;2023-07-13T04:53:39;101444.16;;;17.63
58102;BMP280;52034;51.926;6.320;2023-07-13T04:54:39;101435.03;;;17.66
58102;BMP280;52034;51.926;6.320;2023-07-13T04:55:39;101435.69;;;17.65
58102;BMP280;52034;51.926;6.320;2023-07-13T04:56:41;101444.94;;;17.65
58102;BMP280;52034;51.926;6.320;2023-07-13T04:57:41;101446.47;;;17.72
58102;BMP280;52034;51.926;6.320;2023-07-13T04:58:41;101436.53;;;17.73
58102;BMP280;52034;51.926;6.320;2023-07-13T04:59:42;101437.97;;;17.74
58102;BMP280;52034;51.926;6.320;2023-07-13T05:00:42;101435.75;;;17.69
58102;BMP280;52034;51.926;6.320;2023-07-13T05:01:43;101434.47;;;17.76
58102;BMP280;52034;51.926;6.320;2023-07-13T05:02:44;101435.25;;;17.80
58102;BMP280;52034;51.926;6.320;2023-07-13T05:03:45;101441.00;;;17.84
58102;BMP280;52034;51.926;6.320;2023-07-13T05:04:47;101442.34;;;17.81
58102;BMP280;52034;51.926;6.320;2023-07-13T05:05:58;101438.91;;;17.86
58102;BMP280;52034;51.926;6.320;2023-07-13T05:06:59;101438.03;;;17.76
58102;BMP280;52034;51.926;6.320;2023-07-13T05:08:00;101446.06;;;17.91
58102;BMP280;52034;51.926;6.320;2023-07-13T05:09:00;101443.22;;;17.89
58102;BMP280;52034;51.926;6.320;2023-07-13T05:10:00;101447.44;;;17.88
58102;BMP280;52034;51.926;6.320;2023-07-13T05:11:03;101450.28;;;17.88
58102;BMP280;52034;51.926;6.320;2023-07-13T05:12:04;101442.53;;;17.91
58102;BMP280;52034;51.926;6.320;2023-07-13T05:13:04;101455.28;;;17.90
58102;BMP280;52034;51.926;6.320;2023-07-13T05:14:05;101446.56;;;17.76
58102;BMP280;52034;51.926;6.320;2023-07-13T05:15:06;101453.81;;;17.85
58102;BMP280;52034;51.926;6.320;2023-07-13T05:16:06;101455.09;;;17.78
58102;BMP280;52034;51.926;6.320;2023-07-13T05:17:07;101456.47;;;17.75
58102;BMP280;52034;51.926;6.320;2023-07-13T05:18:08;101451.50;;;17.76
58102;BMP280;52034;51.926;6.320;2023-07-13T05:19:09;101452.88;;;17.73
58102;BMP280;52034;51.926;6.320;2023-07-13T05:20:09;101448.69;;;17.77
58102;BMP280;52034;51.926;6.320;2023-07-13T05:21:11;101454.44;;;17.81
58102;BMP280;52034;51.926;6.320;2023-07-13T05:22:11;101448.00;;;17.79
58102;BMP280;52034;51.926;6.320;2023-07-13T05:23:12;101459.44;;;17.83
58102;BMP280;52034;51.926;6.320;2023-07-13T05:24:12;101457.19;;;17.76
58102;BMP280;52034;51.926;6.320;2023-07-13T05:25:13;101461.47;;;17.78
58102;BMP280;52034;51.926;6.320;2023-07-13T05:26:13;101465.00;;;17.77
58102;BMP280;52034;51.926;6.320;2023-07-13T05:27:14;101460.03;;;17.76
58102;BMP280;52034;51.926;6.320;2023-07-13T05:28:14;101457.97;;;17.80
58102;BMP280;52034;51.926;6.320;2023-07-13T05:29:15;101460.84;;;17.82
58102;BMP280;52034;51.926;6.320;2023-07-13T05:30:15;101467.91;;;17.79
58102;BMP280;52034;51.926;6.320;2023-07-13T05:31:16;101462.25;;;17.81
58102;BMP280;52034;51.926;6.320;2023-07-13T05:32:17;101455.28;;;17.88
58102;BMP280;52034;51.926;6.320;2023-07-13T05:33:18;101465.22;;;17.89
58102;BMP280;52034;51.926;6.320;2023-07-13T05:34:18;101462.94;;;17.80
58102;BMP280;52034;51.926;6.320;2023-07-13T05:35:19;101457.38;;;17.87
58102;BMP280;52034;51.926;6.320;2023-07-13T05:36:19;101461.75;;;17.94
58102;BMP280;52034;51.926;6.320;2023-07-13T05:37:20;101454.59;;;17.89
58102;BMP280;52034;51.926;6.320;2023-07-13T05:38:21;101466.03;;;17.95
58102;BMP280;52034;51.926;6.320;2023-07-13T05:39:21;101475.44;;;18.04
58102;BMP280;52034;51.926;6.320;2023-07-13T05:40:22;101466.78;;;17.98
58102;BMP280;52034;51.926;6.320;2023-07-13T05:41:23;101474.03;;;18.07
58102;BMP280;52034;51.926;6.320;2023-07-13T05:42:23;101473.38;;;18.08
58102;BMP280;52034;51.926;6.320;2023-07-13T05:43:24;101470.53;;;18.08
58102;BMP280;52034;51.926;6.320;2023-07-13T05:44:24;101472.59;;;18.06
58102;BMP280;52034;51.926;6.320;2023-07-13T05:45:25;101477.47;;;17.99
58102;BMP280;52034;51.926;6.320;2023-07-13T05:46:26;101477.56;;;18.05
58102;BMP280;52034;51.926;6.320;2023-07-13T05:47:26;101479.09;;;18.12
58102;BMP280;52034;51.926;6.320;2023-07-13T05:48:27;101480.41;;;18.05
58102;BMP280;52034;51.926;6.320;2023-07-13T05:49:28;101479.66;;;18.03
58102;BMP280;52034;51.926;6.320;2023-07-13T05:50:30;101476.88;;;18.07